Time;durP1;ratioP1;P1;durP2;ratioP2;P2;SDS_P1;SDS_P2;PMS_P1;PMS_P2;Temp;Humidity;BMP_temperature;BMP_pressure;BME280_temperature;BME280_humidity;BME280_pressure;Samples;Min_cycle;Max_cycle;Signal;HPM_P1;HPM_P2
2021/08/18 00:01:28;;;;;;;11.83;10.63;;;15.80;99.90;;;;;;6031747;23;20682;-88
2021/08/18 00:03:55;;;;;;;11.20;9.60;;;15.60;99.90;;;;;;6032438;23;21084;-87
2021/08/18 00:06:22;;;;;;;12.37;11.00;;;15.70;99.90;;;;;;6032690;23;20682;-87
2021/08/18 00:08:48;;;;;;;11.57;10.47;;;15.80;99.90;;;;;;6031712;23;20703;-88
2021/08/18 00:11:15;;;;;;;10.33;9.23;;;15.50;99.90;;;;;;6032510;23;20600;-87
2021/08/18 00:13:44;;;;;;;14.03;10.77;;;15.60;99.90;;;;;;6032241;23;20611;-87
2021/08/18 00:16:11;;;;;;;12.47;10.90;;;15.90;99.90;;;;;;6032592;23;20710;-87
2021/08/18 00:18:38;;;;;;;12.83;11.27;;;15.60;99.90;;;;;;6031806;23;20682;-86
2021/08/18 00:21:04;;;;;;;10.80;9.80;;;15.50;99.90;;;;;;6032523;23;21150;-86
2021/08/18 00:23:31;;;;;;;13.50;11.40;;;15.80;99.90;;;;;;6031808;23;20919;-86
2021/08/18 00:25:58;;;;;;;12.60;9.97;;;15.80;99.90;;;;;;6032429;23;20596;-86
2021/08/18 00:28:25;;;;;;;14.40;11.67;;;15.60;99.90;;;;;;6030733;23;20666;-86
2021/08/18 00:30:53;;;;;;;15.50;11.50;;;15.70;99.90;;;;;;6032217;23;20616;-86
2021/08/18 00:33:20;;;;;;;14.90;12.37;;;15.50;99.90;;;;;;6031449;23;20595;-86
2021/08/18 00:35:47;;;;;;;14.00;12.50;;;15.60;99.90;;;;;;6032631;23;20603;-86
2021/08/18 00:38:14;;;;;;;12.97;11.60;;;15.50;99.90;;;;;;6030587;23;20531;-87
2021/08/18 00:40:41;;;;;;;12.67;11.30;;;15.60;99.90;;;;;;6032378;23;20619;-86
2021/08/18 00:43:08;;;;;;;13.30;12.00;;;15.50;99.90;;;;;;6031528;23;21192;-86
2021/08/18 00:45:35;;;;;;;15.50;11.53;;;15.50;99.90;;;;;;6032440;23;20576;-86
2021/08/18 00:48:04;;;;;;;14.10;11.57;;;15.40;99.90;;;;;;6030690;23;20556;-86
2021/08/18 00:50:31;;;;;;;13.37;10.67;;;15.40;99.90;;;;;;6032136;23;21218;-86
2021/08/18 00:52:58;;;;;;;13.00;11.60;;;15.40;99.90;;;;;;6031668;23;20671;-86
2021/08/18 00:55:26;;;;;;;13.00;11.37;;;15.40;99.90;;;;;;6032321;23;20620;-86
2021/08/18 00:57:54;;;;;;;13.20;11.77;;;15.30;99.90;;;;;;6031219;23;20567;-86
2021/08/18 01:00:22;;;;;;;12.70;11.40;;;15.30;99.90;;;;;;6032099;23;20642;-86
2021/08/18 01:02:49;;;;;;;12.97;11.57;;;15.20;99.90;;;;;;6032045;23;20587;-87
2021/08/18 01:05:20;;;;;;;12.83;11.10;;;15.30;99.90;;;;;;6032028;23;20533;-88
2021/08/18 01:07:48;;;;;;;16.37;12.43;;;15.30;99.90;;;;;;6031549;23;20735;-87
2021/08/18 01:10:17;;;;;;;11.17;10.07;;;15.30;99.90;;;;;;6031803;23;20610;-87
2021/08/18 01:12:45;;;;;;;13.17;11.47;;;15.30;99.90;;;;;;6032587;23;20596;-87
2021/08/18 01:15:14;;;;;;;14.90;12.00;;;15.60;99.90;;;;;;6031682;23;20628;-87
2021/08/18 01:17:42;;;;;;;16.63;14.80;;;15.50;99.90;;;;;;6030715;23;20686;-86
2021/08/18 01:20:10;;;;;;;11.30;10.20;;;15.80;99.90;;;;;;6032217;23;20620;-87
2021/08/18 01:22:39;;;;;;;11.17;10.07;;;15.80;99.90;;;;;;6032037;23;20598;-88
2021/08/18 01:25:08;;;;;;;12.97;11.63;;;15.90;99.90;;;;;;6030693;23;21175;-88
2021/08/18 01:27:36;;;;;;;16.80;13.43;;;15.80;99.90;;;;;;6030282;23;20904;-85
2021/08/18 01:30:06;;;;;;;16.07;11.03;;;15.80;99.90;;;;;;6031553;23;20648;-85
2021/08/18 01:32:42;;;;;;;13.00;10.83;;;15.70;99.90;;;;;;6031169;23;20704;-85
2021/08/18 01:35:17;;;;;;;14.50;12.63;;;15.80;99.90;;;;;;6031874;23;20572;-85
2021/08/18 01:37:44;;;;;;;13.13;11.70;;;15.70;99.90;;;;;;6031124;23;21296;-86
2021/08/18 01:40:12;;;;;;;16.20;13.30;;;15.50;99.90;;;;;;6031469;23;20616;-85
2021/08/18 01:42:39;;;;;;;10.90;9.73;;;15.60;99.90;;;;;;6033124;23;20901;-85
2021/08/18 01:45:10;;;;;;;13.43;12.07;;;15.60;99.90;;;;;;6032532;23;20595;-87
2021/08/18 01:47:37;;;;;;;12.63;11.33;;;15.70;99.90;;;;;;6032515;23;20560;-86
2021/08/18 01:50:06;;;;;;;10.13;9.20;;;15.60;99.90;;;;;;6033342;23;20710;-86
2021/08/18 01:52:32;;;;;;;12.90;11.53;;;16.00;99.90;;;;;;6032849;23;20599;-86
2021/08/18 01:55:00;;;;;;;10.67;9.67;;;15.90;99.90;;;;;;6032993;23;20644;-86
2021/08/18 01:57:28;;;;;;;13.87;12.40;;;15.80;99.90;;;;;;6007052;23;21122;-87
2021/08/18 01:59:54;;;;;;;12.00;10.70;;;15.70;99.90;;;;;;6033507;23;20595;-87
2021/08/18 02:02:23;;;;;;;13.80;12.40;;;15.80;99.90;;;;;;6032722;23;21148;-87
2021/08/18 02:04:50;;;;;;;16.97;11.77;;;15.70;99.90;;;;;;6033772;23;20720;-88
2021/08/18 02:07:16;;;;;;;15.00;12.47;;;15.80;99.90;;;;;;6033234;23;21156;-87
2021/08/18 02:09:43;;;;;;;14.77;12.80;;;15.60;99.90;;;;;;6032356;23;20602;-86
2021/08/18 02:12:10;;;;;;;14.60;13.10;;;15.50;99.90;;;;;;6033213;23;20639;-87
2021/08/18 02:14:39;;;;;;;14.40;12.90;;;15.70;99.90;;;;;;6032882;23;20644;-87
2021/08/18 02:17:06;;;;;;;9.87;8.97;;;15.60;99.90;;;;;;6033228;23;20584;-87
2021/08/18 02:19:35;;;;;;;14.93;13.20;;;15.80;99.90;;;;;;6033388;23;20604;-88
2021/08/18 02:22:01;;;;;;;13.83;12.30;;;15.90;99.90;;;;;;6034164;23;20594;-87
2021/08/18 02:24:29;;;;;;;15.27;13.50;;;15.70;99.90;;;;;;6033632;23;20937;-87
2021/08/18 02:26:56;;;;;;;15.33;13.60;;;15.60;99.90;;;;;;6033789;23;20667;-87
2021/08/18 02:29:23;;;;;;;11.10;9.97;;;15.60;99.90;;;;;;6033217;23;20592;-88
2021/08/18 02:31:50;;;;;;;14.40;12.40;;;16.00;99.90;;;;;;6033235;23;20603;-88
2021/08/18 02:34:17;;;;;;;15.93;14.20;;;15.90;99.90;;;;;;6033571;23;20742;-87
2021/08/18 02:36:45;;;;;;;15.47;13.53;;;15.80;99.90;;;;;;6033923;23;20699;-87
2021/08/18 02:39:12;;;;;;;14.23;12.83;;;15.80;99.90;;;;;;6032334;23;20590;-87
2021/08/18 02:41:39;;;;;;;14.83;13.33;;;16.10;99.90;;;;;;6033440;23;20591;-87
2021/08/18 02:44:06;;;;;;;12.80;11.00;;;16.10;99.90;;;;;;6032538;23;20702;-87
2021/08/18 02:46:33;;;;;;;15.63;10.10;;;15.90;99.90;;;;;;6032638;23;20595;-88
2021/08/18 02:48:59;;;;;;;14.87;13.27;;;16.50;99.90;;;;;;6033150;23;20591;-88
2021/08/18 02:51:26;;;;;;;15.67;13.90;;;16.70;99.90;;;;;;6034239;23;20635;-88
2021/08/18 02:53:54;;;;;;;13.23;11.83;;;16.00;99.90;;;;;;6032789;23;20691;-87
2021/08/18 02:56:22;;;;;;;13.97;12.40;;;16.00;99.90;;;;;;6032404;23;20606;-88
2021/08/18 02:58:48;;;;;;;15.50;13.90;;;15.60;99.90;;;;;;6033272;23;21191;-89
2021/08/18 03:01:15;;;;;;;16.73;13.87;;;15.40;99.90;;;;;;6032131;23;20692;-88
2021/08/18 03:03:42;;;;;;;11.40;10.50;;;15.40;99.90;;;;;;6033892;23;21307;-87
2021/08/18 03:06:09;;;;;;;15.57;13.73;;;15.70;99.90;;;;;;6034122;23;20592;-87
2021/08/18 03:08:37;;;;;;;17.03;14.60;;;15.50;99.90;;;;;;6032171;23;20683;-87
2021/08/18 03:11:05;;;;;;;19.03;14.93;;;15.20;99.90;;;;;;6033734;23;20533;-87
2021/08/18 03:13:32;;;;;;;22.40;14.57;;;15.10;99.90;;;;;;6033310;23;20631;-88
2021/08/18 03:15:59;;;;;;;16.53;14.73;;;15.10;99.90;;;;;;6033459;23;20703;-88
2021/08/18 03:18:27;;;;;;;16.03;14.33;;;15.20;99.90;;;;;;6032065;23;21131;-88
2021/08/18 03:20:54;;;;;;;17.70;15.43;;;15.20;99.90;;;;;;6033813;23;20655;-88
2021/08/18 03:23:21;;;;;;;17.00;15.13;;;15.00;99.90;;;;;;6032595;23;21239;-88
2021/08/18 03:25:48;;;;;;;14.30;12.93;;;14.90;99.90;;;;;;6033357;23;21128;-88
2021/08/18 03:28:16;;;;;;;14.77;13.17;;;15.00;99.90;;;;;;6031434;23;20528;-87
2021/08/18 03:30:43;;;;;;;15.17;13.73;;;15.00;99.90;;;;;;6032710;23;20598;-88
2021/08/18 03:33:10;;;;;;;16.07;14.53;;;15.20;99.90;;;;;;6032749;23;20596;-88
2021/08/18 03:35:37;;;;;;;14.87;13.30;;;15.10;99.90;;;;;;6033451;23;20728;-88
2021/08/18 03:38:04;;;;;;;14.27;12.53;;;15.10;99.90;;;;;;6031381;23;20588;-88
2021/08/18 03:40:31;;;;;;;14.57;13.03;;;15.20;99.90;;;;;;6034157;23;20928;-88
2021/08/18 03:42:58;;;;;;;14.37;12.80;;;15.10;99.90;;;;;;6033007;23;21207;-88
2021/08/18 03:45:26;;;;;;;14.30;12.77;;;15.10;99.90;;;;;;6032870;23;20588;-88
2021/08/18 03:47:53;;;;;;;15.77;14.10;;;15.10;99.90;;;;;;6031732;23;20599;-88
2021/08/18 03:50:20;;;;;;;13.07;11.70;;;15.40;99.90;;;;;;6033521;23;20623;-87
2021/08/18 03:52:48;;;;;;;13.03;11.70;;;15.30;99.90;;;;;;6032551;23;20622;-86
2021/08/18 03:55:16;;;;;;;14.00;12.53;;;15.10;99.90;;;;;;6032692;23;20600;-87
2021/08/18 03:57:43;;;;;;;12.93;11.67;;;15.10;99.90;;;;;;6032182;23;20591;-88
2021/08/18 04:00:12;;;;;;;13.33;12.00;;;15.00;99.90;;;;;;6032302;23;20573;-87
2021/08/18 04:02:41;;;;;;;14.23;11.30;;;15.00;99.90;;;;;;6031623;23;21074;-87
2021/08/18 04:05:10;;;;;;;12.87;11.67;;;15.10;99.90;;;;;;6033148;23;20658;-87
2021/08/18 04:07:37;;;;;;;15.73;11.80;;;15.00;99.90;;;;;;6032373;23;20643;-89
2021/08/18 04:10:05;;;;;;;12.10;10.90;;;14.90;99.90;;;;;;6032989;23;21531;-88
2021/08/18 04:12:32;;;;;;;13.00;11.70;;;15.00;99.90;;;;;;6033190;23;20607;-87
2021/08/18 04:14:59;;;;;;;13.40;12.10;;;15.00;99.90;;;;;;6009276;23;20624;-88
2021/08/18 04:17:26;;;;;;;13.47;12.07;;;15.00;99.90;;;;;;6007224;23;20588;-88
2021/08/18 04:19:54;;;;;;;12.63;11.33;;;15.60;99.90;;;;;;6034143;23;20683;-88
2021/08/18 04:22:21;;;;;;;13.23;11.90;;;15.20;99.90;;;;;;6033319;23;21133;-88
2021/08/18 04:24:48;;;;;;;11.80;10.73;;;15.00;99.90;;;;;;6032633;23;20598;-88
2021/08/18 04:27:15;;;;;;;13.27;11.90;;;15.40;99.90;;;;;;6008277;23;20607;-87
2021/08/18 04:29:42;;;;;;;12.73;11.43;;;15.30;99.90;;;;;;6032897;23;20643;-88
2021/08/18 04:32:09;;;;;;;12.30;11.10;;;15.40;99.90;;;;;;6031945;23;20559;-87
2021/08/18 04:34:36;;;;;;;12.13;10.80;;;15.70;99.90;;;;;;6032018;23;20679;-88
2021/08/18 04:37:05;;;;;;;11.20;10.10;;;15.40;99.90;;;;;;6032730;23;20635;-86
2021/08/18 04:39:32;;;;;;;12.77;11.53;;;15.60;99.90;;;;;;6030374;23;20627;-87
2021/08/18 04:41:59;;;;;;;12.03;10.83;;;15.70;99.90;;;;;;6032128;23;20619;-91
2021/08/18 04:44:25;;;;;;;11.57;10.47;;;15.60;99.90;;;;;;6031648;23;20620;-88
2021/08/18 04:46:52;;;;;;;11.70;10.50;;;15.60;99.90;;;;;;6031668;23;20552;-88
2021/08/18 04:49:19;;;;;;;10.83;9.37;;;15.80;99.90;;;;;;6031835;23;20679;-86
2021/08/18 04:51:46;;;;;;;8.97;8.10;;;15.80;99.90;;;;;;6034653;23;21062;-88
2021/08/18 04:54:15;;;;;;;10.07;9.07;;;16.00;99.90;;;;;;6031907;23;20694;-88
2021/08/18 04:56:42;;;;;;;11.13;9.20;;;15.80;99.90;;;;;;6032653;23;21223;-88
2021/08/18 04:59:08;;;;;;;10.63;9.53;;;16.10;99.90;;;;;;6032129;23;20593;-88
2021/08/18 05:01:35;;;;;;;10.90;9.90;;;15.90;99.90;;;;;;6032278;23;20596;-88
2021/08/18 05:04:03;;;;;;;11.50;10.20;;;15.60;99.90;;;;;;6032869;23;20916;-88
2021/08/18 05:06:30;;;;;;;10.60;9.60;;;15.60;99.90;;;;;;6032238;23;20568;-88
2021/08/18 05:08:56;;;;;;;11.30;10.00;;;15.60;99.90;;;;;;6027974;23;20592;-87
2021/08/18 05:11:25;;;;;;;10.07;9.17;;;15.30;99.90;;;;;;6032911;23;20598;-89
2021/08/18 05:13:52;;;;;;;10.90;9.30;;;15.30;99.90;;;;;;6033169;23;20619;-88
2021/08/18 05:16:18;;;;;;;9.10;8.20;;;15.60;99.90;;;;;;6033466;23;20611;-89
2021/08/18 05:18:45;;;;;;;10.97;9.97;;;15.80;99.90;;;;;;6033357;23;20611;-89
2021/08/18 05:21:12;;;;;;;10.77;9.77;;;16.20;99.90;;;;;;6033283;23;20580;-89
2021/08/18 05:23:39;;;;;;;9.67;8.67;;;15.90;99.90;;;;;;6031602;23;20624;-88
2021/08/18 05:26:05;;;;;;;11.53;9.30;;;16.00;99.90;;;;;;6032714;23;20525;-89
2021/08/18 05:28:35;;;;;;;11.30;9.70;;;16.20;99.90;;;;;;6031147;23;20595;-88
2021/08/18 05:31:01;;;;;;;11.53;9.80;;;16.30;99.90;;;;;;6032412;23;20531;-88
2021/08/18 05:33:28;;;;;;;10.17;8.97;;;15.80;99.90;;;;;;6031312;23;20608;-88
2021/08/18 05:35:56;;;;;;;11.37;10.10;;;16.00;99.90;;;;;;6032065;23;20699;-89
2021/08/18 05:38:23;;;;;;;10.87;9.77;;;15.90;99.90;;;;;;6031117;23;20588;-88
2021/08/18 05:40:50;;;;;;;10.57;9.23;;;15.80;99.90;;;;;;6032839;23;20599;-89
2021/08/18 05:43:16;;;;;;;10.50;9.53;;;15.70;99.90;;;;;;6031472;23;20596;-88
2021/08/18 05:45:45;;;;;;;10.70;9.70;;;15.60;99.90;;;;;;6032672;23;20587;-88
2021/08/18 05:48:11;;;;;;;11.37;9.90;;;15.50;99.90;;;;;;6030844;23;20592;-87
2021/08/18 05:50:38;;;;;;;13.13;8.57;;;15.50;99.90;;;;;;6032157;23;20599;-87
2021/08/18 05:53:07;;;;;;;10.23;8.63;;;15.40;99.90;;;;;;6031023;23;21173;-87
2021/08/18 05:55:33;;;;;;;10.77;9.57;;;15.60;99.90;;;;;;6032428;23;20659;-87
2021/08/18 05:58:00;;;;;;;10.67;9.10;;;15.60;99.90;;;;;;6031287;23;20591;-87
2021/08/18 06:00:27;;;;;;;10.47;9.47;;;15.60;99.90;;;;;;6031216;23;20959;-87
2021/08/18 06:02:55;;;;;;;10.00;9.07;;;15.50;99.90;;;;;;6031402;23;20630;-87
2021/08/18 06:05:22;;;;;;;9.80;8.90;;;15.90;99.90;;;;;;6032511;23;20599;-88
2021/08/18 06:07:49;;;;;;;9.53;8.63;;;16.20;99.90;;;;;;6031508;23;20583;-88
2021/08/18 06:10:16;;;;;;;10.13;9.13;;;16.00;99.90;;;;;;6025152;23;20614;-88
2021/08/18 06:12:43;;;;;;;10.70;9.63;;;15.90;99.90;;;;;;6031628;23;21230;-88
2021/08/18 06:15:10;;;;;;;9.00;8.10;;;15.90;99.90;;;;;;6006142;23;21214;-87
2021/08/18 06:17:37;;;;;;;13.13;10.10;;;15.70;99.90;;;;;;6030417;23;20592;-87
2021/08/18 06:20:07;;;;;;;10.20;9.20;;;15.90;99.90;;;;;;5984983;23;1117788;-88
2021/08/18 06:22:35;;;;;;;10.70;9.60;;;16.10;99.90;;;;;;6008286;23;20220;-88
2021/08/18 06:25:03;;;;;;;9.60;8.60;;;16.10;99.90;;;;;;6032568;23;20599;-89
2021/08/18 06:27:30;;;;;;;9.20;8.40;;;16.00;99.90;;;;;;6033217;23;20611;-88
2021/08/18 06:29:57;;;;;;;8.87;8.00;;;15.90;99.90;;;;;;6033602;23;20632;-88
2021/08/18 06:32:24;;;;;;;8.10;7.23;;;15.90;99.90;;;;;;6032761;23;20588;-87
2021/08/18 06:34:53;;;;;;;9.67;8.80;;;16.10;99.90;;;;;;6033833;23;20596;-89
2021/08/18 06:37:21;;;;;;;10.33;9.20;;;16.20;99.90;;;;;;6033694;23;20615;-88
2021/08/18 06:39:48;;;;;;;9.47;8.47;;;16.00;99.90;;;;;;6034240;23;20603;-90
2021/08/18 06:42:15;;;;;;;12.20;10.70;;;16.00;99.90;;;;;;6034850;23;20706;-90
2021/08/18 06:44:42;;;;;;;10.03;9.00;;;16.00;99.90;;;;;;6034567;23;20594;-89
2021/08/18 06:47:10;;;;;;;14.00;12.07;;;16.10;99.90;;;;;;6033887;23;20533;-89
2021/08/18 06:49:37;;;;;;;11.50;10.10;;;16.20;99.90;;;;;;6034233;23;20552;-90
2021/08/18 06:52:05;;;;;;;13.70;11.00;;;16.20;99.90;;;;;;6034696;23;20594;-90
2021/08/18 06:54:33;;;;;;;12.30;9.70;;;16.80;99.90;;;;;;6009087;23;20627;-89
2021/08/18 06:57:00;;;;;;;12.73;11.27;;;17.00;99.90;;;;;;6034729;23;20628;-91
2021/08/18 06:59:27;;;;;;;16.07;12.53;;;16.70;99.90;;;;;;6033742;23;21125;-90
2021/08/18 07:01:54;;;;;;;12.10;10.80;;;16.80;99.90;;;;;;6034638;23;20932;-89
2021/08/18 07:04:22;;;;;;;12.10;10.20;;;16.90;99.90;;;;;;6033535;23;20616;-87
2021/08/18 07:06:49;;;;;;;11.30;9.43;;;16.90;99.90;;;;;;6034209;23;20564;-88
2021/08/18 07:09:16;;;;;;;12.50;9.50;;;17.20;99.90;;;;;;6031745;23;20599;-88
2021/08/18 07:11:44;;;;;;;9.70;8.33;;;17.60;99.90;;;;;;6034089;23;20610;-88
2021/08/18 07:14:11;;;;;;;10.97;9.27;;;17.80;99.90;;;;;;6032424;23;20626;-88
2021/08/18 07:16:38;;;;;;;9.43;8.60;;;17.80;99.90;;;;;;6032402;23;20600;-88
2021/08/18 07:19:05;;;;;;;9.17;8.27;;;18.00;99.90;;;;;;6032702;23;20592;-88
2021/08/18 07:21:33;;;;;;;10.53;8.83;;;18.10;99.90;;;;;;6032321;23;20596;-89
2021/08/18 07:24:00;;;;;;;7.37;6.67;;;18.00;99.90;;;;;;6032640;23;20638;-88
2021/08/18 07:26:27;;;;;;;7.03;6.27;;;18.10;99.90;;;;;;6033502;23;20569;-88
2021/08/18 07:29:00;;;;;;;6.17;5.53;;;18.00;99.90;;;;;;6032880;23;20687;-88
2021/08/18 07:31:28;;;;;;;9.00;7.07;;;18.20;99.90;;;;;;6032521;23;20600;-88
2021/08/18 07:33:55;;;;;;;7.97;6.67;;;18.20;99.90;;;;;;6008249;23;21320;-88
2021/08/18 07:36:23;;;;;;;7.00;6.03;;;18.10;99.90;;;;;;6032390;23;20628;-88
2021/08/18 07:38:50;;;;;;;7.50;6.60;;;18.30;99.90;;;;;;6031336;23;20568;-88
2021/08/18 07:41:16;;;;;;;13.70;5.80;;;18.20;99.90;;;;;;6032970;23;21149;-90
2021/08/18 07:43:55;;;;;;;10.07;5.43;;;18.30;99.90;;;;;;6035056;23;20627;-93
2021/08/18 07:46:24;;;;;;;6.37;5.77;;;18.10;99.90;;;;;;6036606;23;20616;-92
2021/08/18 07:48:52;;;;;;;7.30;6.60;;;18.00;99.90;;;;;;6035725;23;20691;-91
2021/08/18 07:51:26;;;;;;;7.67;6.07;;;17.50;99.90;;;;;;6039077;23;20596;-90
2021/08/18 07:53:57;;;;;;;6.93;6.10;;;17.60;99.90;;;;;;6036676;23;20626;-89
2021/08/18 07:56:24;;;;;;;6.53;5.80;;;17.70;99.90;;;;;;6033674;23;20648;-91
2021/08/18 07:58:57;;;;;;;6.67;5.97;;;18.20;99.90;;;;;;6035058;23;20584;-91
2021/08/18 08:01:25;;;;;;;6.27;4.37;;;18.20;99.90;;;;;;6032209;23;20615;-90
2021/08/18 08:03:52;;;;;;;6.17;5.50;;;18.00;99.90;;;;;;6030314;23;20683;-91
2021/08/18 08:06:20;;;;;;;6.27;5.67;;;18.10;99.90;;;;;;6029759;23;20647;-91
2021/08/18 08:08:49;;;;;;;6.33;5.80;;;18.00;99.90;;;;;;6029259;23;21117;-92
2021/08/18 08:11:16;;;;;;;6.93;5.40;;;18.00;99.90;;;;;;6027901;23;20588;-90
2021/08/18 08:13:43;;;;;;;6.57;4.60;;;18.00;99.90;;;;;;6031664;23;20643;-91
2021/08/18 08:16:10;;;;;;;4.83;4.07;;;18.40;99.90;;;;;;6031771;23;21215;-90
2021/08/18 08:18:38;;;;;;;5.90;3.40;;;18.30;99.90;;;;;;6030984;23;20934;-91
2021/08/18 08:21:05;;;;;;;3.60;3.30;;;18.20;99.90;;;;;;6031221;23;20977;-91
2021/08/18 08:23:32;;;;;;;5.33;3.60;;;18.30;99.90;;;;;;6031140;23;20953;-91
2021/08/18 08:25:59;;;;;;;3.70;3.40;;;18.40;99.90;;;;;;6032759;23;20616;-91
2021/08/18 08:28:25;;;;;;;2.80;2.50;;;18.80;99.90;;;;;;6030125;23;20686;-91
2021/08/18 08:30:52;;;;;;;4.50;4.10;;;18.50;99.90;;;;;;6031913;23;21220;-91
2021/08/18 08:33:19;;;;;;;4.30;3.20;;;18.10;99.90;;;;;;6031882;23;20976;-91
2021/08/18 08:35:48;;;;;;;4.33;4.00;;;18.10;99.90;;;;;;6032168;23;20940;-91
2021/08/18 08:38:20;;;;;;;4.23;3.53;;;18.10;99.90;;;;;;6030129;23;20588;-90
2021/08/18 08:40:48;;;;;;;5.93;3.87;;;18.20;99.90;;;;;;6032118;23;20596;-91
2021/08/18 08:43:17;;;;;;;4.03;3.67;;;18.10;99.90;;;;;;6031692;23;21284;-91
2021/08/18 08:45:46;;;;;;;3.70;3.00;;;18.00;99.90;;;;;;6032340;23;20785;-91
2021/08/18 08:48:15;;;;;;;4.13;2.90;;;18.30;99.90;;;;;;6030239;23;20596;-91
2021/08/18 08:50:42;;;;;;;3.20;2.87;;;18.40;99.90;;;;;;6032104;23;20587;-91
2021/08/18 08:53:10;;;;;;;3.97;2.83;;;18.20;99.90;;;;;;6031078;23;20723;-91
2021/08/18 08:55:37;;;;;;;3.60;2.87;;;18.00;99.90;;;;;;6032107;23;21295;-91
2021/08/18 08:58:04;;;;;;;4.00;3.17;;;18.30;99.90;;;;;;6031354;23;21159;-92
2021/08/18 09:00:31;;;;;;;3.70;3.20;;;18.00;99.90;;;;;;6031776;23;20590;-92
2021/08/18 09:03:11;;;;;;;3.20;3.00;;;18.10;99.90;;;;;;6030225;23;21283;-91
2021/08/18 09:05:38;;;;;;;2.93;2.63;;;18.00;99.90;;;;;;6031599;23;20985;-91
2021/08/18 09:08:09;;;;;;;3.60;2.50;;;17.80;99.90;;;;;;6030363;23;20612;-92
2021/08/18 09:10:39;;;;;;;2.53;2.20;;;17.70;99.90;;;;;;6031981;23;20584;-92
2021/08/18 09:13:14;;;;;;;4.10;3.20;;;17.80;99.90;;;;;;6031428;23;20627;-91
2021/08/18 09:15:43;;;;;;;3.60;2.93;;;17.60;99.90;;;;;;6031670;23;20599;-92
2021/08/18 09:18:11;;;;;;;4.10;2.97;;;17.70;99.90;;;;;;6030265;23;20611;-92
2021/08/18 09:20:41;;;;;;;4.27;3.90;;;18.00;99.90;;;;;;6030415;23;20532;-92
2021/08/18 09:23:12;;;;;;;6.43;3.80;;;17.80;99.90;;;;;;6031020;23;20615;-92
2021/08/18 09:25:42;;;;;;;6.13;5.10;;;18.10;99.90;;;;;;6032149;23;20587;-92
2021/08/18 09:28:18;;;;;;;3.60;3.30;;;18.20;99.90;;;;;;6030526;23;20686;-92
2021/08/18 09:30:46;;;;;;;3.80;3.43;;;18.40;99.90;;;;;;6031843;23;21168;-92
2021/08/18 09:33:16;;;;;;;2.53;2.30;;;18.50;99.90;;;;;;6030351;23;21245;-92
2021/08/18 09:35:44;;;;;;;3.00;2.20;;;18.30;99.90;;;;;;6031705;23;20915;-92
2021/08/18 09:38:13;;;;;;;2.60;2.17;;;18.30;99.90;;;;;;6029400;23;20626;-92
2021/08/18 09:40:44;;;;;;;2.80;2.60;;;18.10;99.90;;;;;;6032098;23;20594;-92
2021/08/18 09:43:14;;;;;;;4.27;3.13;;;18.20;99.90;;;;;;6030704;23;20646;-91
2021/08/18 09:45:43;;;;;;;3.87;2.63;;;18.40;99.90;;;;;;6031607;23;21193;-92
2021/08/18 09:48:12;;;;;;;3.73;2.20;;;18.70;99.90;;;;;;6029821;23;21006;-92
2021/08/18 09:50:51;;;;;;;3.10;2.90;;;18.50;99.90;;;;;;6032195;23;20644;-92
2021/08/18 09:53:20;;;;;;;3.33;2.77;;;18.20;99.90;;;;;;6030297;23;20707;-92
2021/08/18 09:55:57;;;;;;;3.23;2.93;;;18.00;99.90;;;;;;6031982;23;20592;-92
2021/08/18 09:58:27;;;;;;;3.43;2.63;;;18.10;99.90;;;;;;6031295;23;20596;-92
2021/08/18 10:00:54;;;;;;;3.90;3.60;;;18.30;99.90;;;;;;6032915;23;20588;-92
2021/08/18 10:03:22;;;;;;;3.47;3.17;;;18.60;99.90;;;;;;6032586;23;20592;-91
2021/08/18 10:05:50;;;;;;;3.33;2.70;;;18.70;99.90;;;;;;6033352;23;20595;-92
2021/08/18 10:08:18;;;;;;;2.67;2.43;;;18.80;99.90;;;;;;6031648;23;20638;-92
2021/08/18 10:10:46;;;;;;;3.23;2.70;;;19.20;99.90;;;;;;6033265;23;20591;-92
2021/08/18 10:13:16;;;;;;;2.97;2.67;;;19.50;99.90;;;;;;6032372;23;20661;-92
2021/08/18 10:15:43;;;;;;;2.50;1.50;;;19.70;99.90;;;;;;6033739;23;20624;-92
2021/08/18 10:18:12;;;;;;;2.77;2.57;;;19.70;99.90;;;;;;6031068;23;20624;-92
2021/08/18 10:20:39;;;;;;;4.00;3.07;;;20.00;99.90;;;;;;6033725;23;20675;-92
2021/08/18 10:23:08;;;;;;;3.67;3.27;;;20.30;99.90;;;;;;6031942;23;21123;-92
2021/08/18 10:25:45;;;;;;;1.50;1.20;;;20.30;99.90;;;;;;6032955;23;20612;-92
2021/08/18 10:28:12;;;;;;;1.20;1.03;;;20.30;99.90;;;;;;6031680;23;20557;-92
2021/08/18 10:30:49;;;;;;;1.93;0.80;;;20.50;99.90;;;;;;6033416;23;20698;-92
2021/08/18 10:33:53;;;;;;;2.00;1.80;;;20.70;99.90;;;;;;6031773;23;21020;-92
2021/08/18 10:36:53;;;;;;;2.00;1.90;;;20.80;99.90;;;;;;6032493;23;20567;-92
2021/08/18 10:39:35;;;;;;;1.80;1.20;;;21.20;99.90;;;;;;5987527;23;20584;-92
2021/08/18 10:42:04;;;;;;;1.23;0.50;;;21.00;99.90;;;;;;6033243;23;20610;-92
2021/08/18 10:44:37;;;;;;;0.70;0.60;;;20.60;99.90;;;;;;6031971;23;20616;-92
2021/08/18 10:47:19;;;;;;;0.93;0.87;;;21.00;99.90;;;;;;6031779;23;20943;-92
2021/08/18 10:49:48;;;;;;;2.13;1.40;;;21.10;99.90;;;;;;6033209;23;20579;-92
2021/08/18 10:52:53;;;;;;;1.53;1.07;;;21.40;99.90;;;;;;6032885;23;20594;-92
2021/08/18 10:55:30;;;;;;;0.90;0.60;;;21.10;99.90;;;;;;6032812;23;21191;-92
2021/08/18 10:57:58;;;;;;;0.70;0.60;;;21.00;99.90;;;;;;6031054;23;20615;-91
2021/08/18 11:00:35;;;;;;;1.00;0.83;;;20.90;99.90;;;;;;6032560;23;20795;-92
2021/08/18 11:03:05;;;;;;;1.17;0.90;;;20.60;99.90;;;;;;6031576;23;20625;-92
2021/08/18 11:05:46;;;;;;;1.77;1.50;;;20.50;99.90;;;;;;6032450;23;20654;-92
2021/08/18 11:08:14;;;;;;;1.90;1.30;;;20.80;99.90;;;;;;6031242;23;20577;-92
2021/08/18 11:11:06;;;;;;;1.53;1.30;;;21.10;99.90;;;;;;6032121;23;20943;-93
2021/08/18 11:13:38;;;;;;;1.27;0.87;;;21.10;99.90;;;;;;6031702;23;20627;-92
2021/08/18 11:16:10;;;;;;;1.30;1.20;;;21.20;99.90;;;;;;6032838;23;20568;-92
2021/08/18 11:18:46;;;;;;;1.43;1.33;;;21.30;99.90;;;;;;6030737;23;20703;-92
2021/08/18 11:21:16;;;;;;;2.00;1.47;;;22.00;99.90;;;;;;6032937;23;21099;-92
2021/08/18 11:23:53;;;;;;;1.70;1.60;;;21.70;99.90;;;;;;6031457;23;20719;-93
2021/08/18 11:26:21;;;;;;;1.43;1.20;;;21.90;99.90;;;;;;6031033;23;20583;-92
2021/08/18 11:28:57;;;;;;;1.97;1.67;;;22.00;99.90;;;;;;6031604;23;21173;-92
2021/08/18 11:31:34;;;;;;;1.10;1.10;;;22.20;99.90;;;;;;6031212;23;20903;-92
2021/08/18 11:34:02;;;;;;;4.50;1.60;;;22.20;99.90;;;;;;6032116;23;20646;-93
2021/08/18 11:36:34;;;;;;;1.50;1.40;;;22.20;99.90;;;;;;6032102;23;20695;-92
2021/08/18 11:39:02;;;;;;;3.07;1.17;;;22.10;99.90;;;;;;6030656;23;20568;-92
2021/08/18 11:41:39;;;;;;;1.23;1.00;;;22.00;99.90;;;;;;6032361;23;20660;-93
2021/08/18 11:44:06;;;;;;;1.23;1.13;;;21.80;99.90;;;;;;6030816;23;20667;-93
2021/08/18 11:46:33;;;;;;;2.00;1.80;;;21.70;99.90;;;;;;6030909;23;20596;-92
2021/08/18 11:49:06;;;;;;;1.20;1.10;;;20.90;99.90;;;;;;6034304;23;20525;-92
2021/08/18 11:51:35;;;;;;;1.53;1.10;;;21.10;99.90;;;;;;6034452;23;20624;-92
2021/08/18 11:54:03;;;;;;;5.47;1.07;;;21.30;99.90;;;;;;6034411;23;20671;-92
2021/08/18 11:56:32;;;;;;;4.40;1.10;;;21.50;99.90;;;;;;6034043;23;20592;-92
2021/08/18 11:59:01;;;;;;;1.77;1.30;;;21.70;99.90;;;;;;6034100;23;20568;-92
2021/08/18 12:01:30;;;;;;;1.30;1.10;;;21.90;99.90;;;;;;6034342;23;20591;-93
2021/08/18 12:03:58;;;;;;;2.03;1.13;;;22.40;99.90;;;;;;6035284;23;20695;-92
2021/08/18 12:06:38;;;;;;;2.57;1.10;;;23.10;99.90;;;;;;6034557;23;20612;-92
2021/08/18 12:09:18;;;;;;;1.10;1.00;;;23.60;99.90;;;;;;6034126;23;20584;-93
2021/08/18 12:11:45;;;;;;;1.20;1.10;;;23.70;99.90;;;;;;6035031;23;21125;-92
2021/08/18 12:14:15;;;;;;;1.70;1.60;;;23.70;99.90;;;;;;6033990;23;20652;-91
2021/08/18 12:16:43;;;;;;;2.10;1.13;;;23.50;99.90;;;;;;6033472;23;20611;-92
2021/08/18 12:19:23;;;;;;;9.20;2.10;;;23.70;99.90;;;;;;6033669;23;20634;-93
2021/08/18 12:22:23;;;;;;;5.13;1.73;;;23.30;99.90;;;;;;6035420;23;20911;-92
2021/08/18 12:24:53;;;;;;;1.60;1.50;;;23.30;99.90;;;;;;6032998;23;20643;-91
2021/08/18 12:27:27;;;;;;;4.13;1.30;;;23.20;99.90;;;;;;6033627;23;20535;-92
2021/08/18 12:30:06;;;;;;;1.73;1.03;;;23.30;99.90;;;;;;6034385;23;20556;-92
2021/08/18 12:32:34;;;;;;;4.13;1.60;;;23.30;99.90;;;;;;6033971;23;20556;-92
2021/08/18 12:35:03;;;;;;;3.07;1.27;;;23.30;99.90;;;;;;6035147;23;20596;-93
2021/08/18 12:37:35;;;;;;;0.83;0.80;;;23.30;99.90;;;;;;6033926;23;20631;-92
2021/08/18 12:40:06;;;;;;;3.30;1.13;;;23.20;99.90;;;;;;6034198;23;20959;-92
2021/08/18 12:42:34;;;;;;;1.97;1.27;;;23.20;99.90;;;;;;6034158;23;20533;-92
2021/08/18 12:45:08;;;;;;;1.23;0.93;;;23.20;99.90;;;;;;6033542;23;21172;-92
2021/08/18 12:47:38;;;;;;;1.60;1.20;;;23.20;99.90;;;;;;6032812;23;20701;-92